createdAt,value
2022-10-25T00:08:07.362Z,100379.20
2022-10-25T00:18:09.293Z,100377.19
2022-10-25T00:28:11.513Z,100388.74
2022-10-25T00:38:13.444Z,100397.45
2022-10-25T00:48:16.918Z,100393.85
2022-10-25T00:58:24.209Z,100408.36
2022-10-25T01:08:26.934Z,100408.33
2022-10-25T01:18:47.659Z,100409.33
2022-10-25T01:28:55.890Z,100417.43
2022-10-25T01:39:03.080Z,100415.06
2022-10-25T01:49:09.107Z,100412.66
2022-10-25T01:59:28.978Z,100417.83
2022-10-25T02:09:48.084Z,100404.88
2022-10-25T02:19:55.382Z,100409.14
2022-10-25T02:29:59.031Z,100410.81
2022-10-25T02:40:01.574Z,100403.23
2022-10-25T02:50:04.518Z,100392.38
2022-10-25T03:00:07.705Z,100384.70
2022-10-25T03:10:09.913Z,100371.92
2022-10-25T03:20:11.979Z,100356.83
2022-10-25T03:30:15.217Z,100356.58
2022-10-25T03:40:18.483Z,100354.95
2022-10-25T03:50:20.450Z,100362.77
2022-10-25T04:00:22.516Z,100388.02
2022-10-25T04:10:26.006Z,100382.21
2022-10-25T04:20:28.311Z,100382.55
2022-10-25T04:30:32.832Z,100380.24
2022-10-25T04:40:37.266Z,100380.92
2022-10-25T04:50:39.277Z,100368.91
2022-10-25T05:00:41.306Z,100373.02
2022-10-25T05:10:43.230Z,100375.98
2022-10-25T05:20:52.609Z,100385.25
2022-10-25T05:30:54.811Z,100393.36
2022-10-25T06:01:42.080Z,100401.89
2022-10-25T06:11:44.112Z,100415.33
2022-10-25T06:21:47.071Z,100423.47
2022-10-25T06:31:49.783Z,100431.73
2022-10-25T06:41:51.718Z,100440.61
2022-10-25T06:51:54.021Z,100443.88
2022-10-25T07:01:57.469Z,100440.98
2022-10-25T07:11:59.471Z,100442.28
2022-10-25T07:22:01.426Z,100440.46
2022-10-25T07:32:03.660Z,100445.38
2022-10-25T07:42:05.728Z,100450.45
2022-10-25T07:52:14.801Z,100451.13
2022-10-25T08:02:17.201Z,100444.85
2022-10-25T08:12:22.552Z,100434.67
2022-10-25T08:22:24.714Z,100427.80
2022-10-25T08:32:26.897Z,100426.48
2022-10-25T08:42:39.641Z,100432.97
2022-10-25T08:52:56.918Z,100423.14
2022-10-25T09:03:01.211Z,100439.82
2022-10-25T09:13:11.373Z,100439.17
2022-10-25T09:23:19.450Z,100445.05
2022-10-25T09:33:28.516Z,100461.04
2022-10-25T09:43:43.041Z,100456.29
2022-10-25T09:53:46.626Z,100453.25
2022-10-25T10:03:53.103Z,100441.88
2022-10-25T10:14:13.608Z,100441.54
2022-10-25T10:24:23.048Z,100444.25
2022-10-25T10:34:37.050Z,100446.95
2022-10-25T10:44:39.927Z,100440.96
2022-10-25T10:54:48.137Z,100431.70
2022-10-25T11:04:52.706Z,100427.30
2022-10-25T11:14:56.016Z,100423.99
2022-10-25T11:25:13.448Z,100423.83
2022-10-25T11:35:33.868Z,100424.44
2022-10-25T11:45:39.525Z,100428.11
2022-10-25T11:55:55.817Z,100436.29
2022-10-25T12:06:39.049Z,100443.61
2022-10-25T12:16:41.980Z,100437.20
2022-10-25T12:26:53.182Z,100435.43
2022-10-25T12:37:04.861Z,100431.06
2022-10-25T12:47:20.298Z,100437.35
2022-10-25T12:57:54.129Z,100444.42
2022-10-25T13:08:03.218Z,100448.55
2022-10-25T13:18:25.260Z,100452.13
2022-10-25T13:28:35.930Z,100452.09
2022-10-25T13:38:39.872Z,100462.42
2022-10-25T13:48:42.372Z,100464.67
2022-10-25T13:58:44.234Z,100471.29
2022-10-25T14:09:14.197Z,100475.23
2022-10-25T14:19:21.963Z,100477.95
2022-10-25T14:29:27.689Z,100484.06
2022-10-25T14:39:30.844Z,100495.17
2022-10-25T14:49:32.821Z,100511.70
2022-10-25T14:59:46.247Z,100520.29
2022-10-25T15:09:53.441Z,100520.04
2022-10-25T15:20:07.497Z,100521.67
2022-10-25T15:30:36.086Z,100523.10
2022-10-25T15:40:39.095Z,100528.14
2022-10-25T15:50:51.403Z,100535.52
2022-10-25T16:00:54.404Z,100540.64
2022-10-25T16:10:58.740Z,100545.40
2022-10-25T16:21:00.815Z,100557.10
2022-10-25T16:31:03.888Z,100565.34
2022-10-25T16:41:06.253Z,100571.35
2022-10-25T16:51:13.109Z,100577.15
2022-10-25T17:01:29.167Z,100588.95
2022-10-25T17:11:31.375Z,100592.25
2022-10-25T17:21:36.000Z,100594.07
2022-10-25T17:31:38.141Z,100597.60
2022-10-25T17:41:40.448Z,100610.59
2022-10-25T17:51:44.083Z,100619.71
2022-10-25T18:01:47.324Z,100621.56
2022-10-25T18:11:49.479Z,100621.27
2022-10-25T18:21:51.525Z,100627.77
2022-10-25T18:31:53.698Z,100630.96
2022-10-25T18:41:55.949Z,100635.02
2022-10-25T18:51:59.374Z,100631.98
2022-10-25T19:02:01.670Z,100630.52
2022-10-25T19:12:04.180Z,100630.75
2022-10-25T19:22:06.345Z,100635.90
2022-10-25T19:32:08.798Z,100644.04
2022-10-25T19:42:11.753Z,100651.11
2022-10-25T19:52:13.974Z,100652.98
2022-10-25T20:02:16.123Z,100656.51
2022-10-25T20:12:18.483Z,100668.08
2022-10-25T20:22:20.571Z,100675.64
2022-10-25T20:32:22.691Z,100682.16
2022-10-25T20:42:24.828Z,100694.12
2022-10-25T20:52:26.826Z,100697.57
2022-10-25T21:02:28.871Z,100701.98
2022-10-25T21:12:31.312Z,100701.55
2022-10-25T21:22:33.458Z,100703.20
2022-10-25T21:32:36.021Z,100706.48
2022-10-25T21:42:38.382Z,100705.35
2022-10-25T21:52:43.280Z,100713.19
2022-10-25T22:02:45.417Z,100718.30
2022-10-25T22:12:49.156Z,100714.20
2022-10-25T22:22:51.436Z,100716.55
2022-10-25T22:32:53.696Z,100722.45
2022-10-25T22:42:56.099Z,100718.85
2022-10-25T22:52:57.985Z,100721.84
2022-10-25T23:02:59.921Z,100719.85
2022-10-25T23:13:01.943Z,100731.23
2022-10-25T23:23:03.871Z,100737.27
2022-10-25T23:33:06.740Z,100737.61
2022-10-25T23:43:08.794Z,100740.48
2022-10-25T23:53:10.824Z,100748.79
